sensor_id;sensor_type;location;lat;lon;timestamp;temperature;humidity
12254;DHT22;6189;52.526;13.390;2022-09-01T00:02:41;18.40;99.90
12254;DHT22;6189;52.526;13.390;2022-09-01T00:05:28;18.50;99.90
12254;DHT22;6189;52.526;13.390;2022-09-01T00:08:15;18.50;99.90
12254;DHT22;6189;52.526;13.390;2022-09-01T00:11:00;18.60;99.90
12254;DHT22;6189;52.526;13.390;2022-09-01T00:13:46;18.60;99.90
12254;DHT22;6189;52.526;13.390;2022-09-01T00:16:33;18.60;99.90
12254;DHT22;6189;52.526;13.390;2022-09-01T00:19:19;18.50;99.90
12254;DHT22;6189;52.526;13.390;2022-09-01T00:22:06;18.50;99.90
12254;DHT22;6189;52.526;13.390;2022-09-01T00:24:51;18.50;99.90
12254;DHT22;6189;52.526;13.390;2022-09-01T00:27:37;18.50;99.90
12254;DHT22;6189;52.526;13.390;2022-09-01T00:30:22;18.50;99.90
12254;DHT22;6189;52.526;13.390;2022-09-01T00:33:09;18.50;99.90
12254;DHT22;6189;52.526;13.390;2022-09-01T00:35:55;18.50;99.90
12254;DHT22;6189;52.526;13.390;2022-09-01T00:38:40;18.50;99.90
12254;DHT22;6189;52.526;13.390;2022-09-01T00:41:28;18.50;99.90
12254;DHT22;6189;52.526;13.390;2022-09-01T00:44:17;18.50;99.90
12254;DHT22;6189;52.526;13.390;2022-09-01T00:47:06;18.50;99.90
12254;DHT22;6189;52.526;13.390;2022-09-01T00:49:53;18.40;99.90
12254;DHT22;6189;52.526;13.390;2022-09-01T00:52:43;18.40;99.90
12254;DHT22;6189;52.526;13.390;2022-09-01T00:55:31;18.40;99.90
12254;DHT22;6189;52.526;13.390;2022-09-01T00:58:17;18.40;99.90
12254;DHT22;6189;52.526;13.390;2022-09-01T01:01:04;18.40;99.90
12254;DHT22;6189;52.526;13.390;2022-09-01T01:03:50;18.40;99.90
12254;DHT22;6189;52.526;13.390;2022-09-01T01:06:37;18.20;99.90
12254;DHT22;6189;52.526;13.390;2022-09-01T01:09:26;18.20;99.90
12254;DHT22;6189;52.526;13.390;2022-09-01T01:12:12;18.20;99.90
12254;DHT22;6189;52.526;13.390;2022-09-01T01:15:01;18.20;99.90
12254;DHT22;6189;52.526;13.390;2022-09-01T01:17:47;18.20;99.90
12254;DHT22;6189;52.526;13.390;2022-09-01T01:20:33;18.20;99.90
12254;DHT22;6189;52.526;13.390;2022-09-01T01:23:41;18.20;99.90
12254;DHT22;6189;52.526;13.390;2022-09-01T01:26:30;18.20;99.90
12254;DHT22;6189;52.526;13.390;2022-09-01T01:29:16;18.30;99.90
12254;DHT22;6189;52.526;13.390;2022-09-01T01:32:02;18.30;99.90
12254;DHT22;6189;52.526;13.390;2022-09-01T01:34:56;18.20;99.90
12254;DHT22;6189;52.526;13.390;2022-09-01T01:37:42;18.20;99.90
12254;DHT22;6189;52.526;13.390;2022-09-01T01:40:32;18.20;99.90
12254;DHT22;6189;52.526;13.390;2022-09-01T01:43:19;18.20;99.90
12254;DHT22;6189;52.526;13.390;2022-09-01T01:46:08;18.10;99.90
12254;DHT22;6189;52.526;13.390;2022-09-01T01:48:54;18.20;99.90
12254;DHT22;6189;52.526;13.390;2022-09-01T01:51:40;18.10;99.90
12254;DHT22;6189;52.526;13.390;2022-09-01T01:54:26;18.10;99.90
12254;DHT22;6189;52.526;13.390;2022-09-01T01:57:12;18.10;99.90
12254;DHT22;6189;52.526;13.390;2022-09-01T02:00:02;18.00;99.90
12254;DHT22;6189;52.526;13.390;2022-09-01T02:02:50;18.00;99.90
12254;DHT22;6189;52.526;13.390;2022-09-01T02:05:36;18.00;99.90
12254;DHT22;6189;52.526;13.390;2022-09-01T02:08:22;18.00;99.90
12254;DHT22;6189;52.526;13.390;2022-09-01T02:11:08;18.00;99.90
12254;DHT22;6189;52.526;13.390;2022-09-01T02:13:55;18.00;99.90
12254;DHT22;6189;52.526;13.390;2022-09-01T02:16:42;17.90;99.90
12254;DHT22;6189;52.526;13.390;2022-09-01T02:19:28;17.80;99.90
12254;DHT22;6189;52.526;13.390;2022-09-01T02:22:13;17.90;99.90
12254;DHT22;6189;52.526;13.390;2022-09-01T02:24:59;17.90;99.90
12254;DHT22;6189;52.526;13.390;2022-09-01T02:27:45;17.90;99.90
12254;DHT22;6189;52.526;13.390;2022-09-01T02:30:36;17.90;99.90
12254;DHT22;6189;52.526;13.390;2022-09-01T02:33:26;17.80;99.90
12254;DHT22;6189;52.526;13.390;2022-09-01T02:36:13;17.80;99.90
12254;DHT22;6189;52.526;13.390;2022-09-01T02:39:00;17.80;99.90
12254;DHT22;6189;52.526;13.390;2022-09-01T02:41:46;17.80;99.90
12254;DHT22;6189;52.526;13.390;2022-09-01T02:44:32;17.60;99.90
12254;DHT22;6189;52.526;13.390;2022-09-01T02:47:17;17.60;99.90
12254;DHT22;6189;52.526;13.390;2022-09-01T02:50:05;17.50;99.90
12254;DHT22;6189;52.526;13.390;2022-09-01T02:52:56;17.40;99.90
12254;DHT22;6189;52.526;13.390;2022-09-01T02:55:44;17.50;99.90
12254;DHT22;6189;52.526;13.390;2022-09-01T02:58:31;17.50;99.90
12254;DHT22;6189;52.526;13.390;2022-09-01T03:01:20;17.50;99.90
12254;DHT22;6189;52.526;13.390;2022-09-01T03:04:08;17.50;99.90
12254;DHT22;6189;52.526;13.390;2022-09-01T03:06:56;17.60;99.90
12254;DHT22;6189;52.526;13.390;2022-09-01T03:09:42;17.60;99.90
12254;DHT22;6189;52.526;13.390;2022-09-01T03:12:27;17.50;99.90
12254;DHT22;6189;52.526;13.390;2022-09-01T03:15:13;17.50;99.90
12254;DHT22;6189;52.526;13.390;2022-09-01T03:17:59;17.50;99.90
12254;DHT22;6189;52.526;13.390;2022-09-01T03:20:46;17.50;99.90
12254;DHT22;6189;52.526;13.390;2022-09-01T03:23:37;17.40;99.90
12254;DHT22;6189;52.526;13.390;2022-09-01T03:26:23;17.30;99.90
12254;DHT22;6189;52.526;13.390;2022-09-01T03:29:09;17.20;99.90
12254;DHT22;6189;52.526;13.390;2022-09-01T03:31:55;17.20;99.90
12254;DHT22;6189;52.526;13.390;2022-09-01T03:34:40;17.20;99.90
12254;DHT22;6189;52.526;13.390;2022-09-01T03:37:25;17.30;99.90
12254;DHT22;6189;52.526;13.390;2022-09-01T03:40:14;17.30;99.90
12254;DHT22;6189;52.526;13.390;2022-09-01T03:43:03;17.30;99.90
12254;DHT22;6189;52.526;13.390;2022-09-01T03:45:49;17.20;99.90
12254;DHT22;6189;52.526;13.390;2022-09-01T03:48:35;17.20;99.90
12254;DHT22;6189;52.526;13.390;2022-09-01T03:51:23;17.20;99.90
12254;DHT22;6189;52.526;13.390;2022-09-01T03:54:09;17.10;99.90
12254;DHT22;6189;52.526;13.390;2022-09-01T03:56:57;17.20;99.90
12254;DHT22;6189;52.526;13.390;2022-09-01T03:59:43;17.20;99.90
12254;DHT22;6189;52.526;13.390;2022-09-01T04:02:29;17.20;99.90
12254;DHT22;6189;52.526;13.390;2022-09-01T04:05:14;17.20;99.90
12254;DHT22;6189;52.526;13.390;2022-09-01T04:08:02;17.20;99.90
12254;DHT22;6189;52.526;13.390;2022-09-01T04:10:50;17.20;99.90
12254;DHT22;6189;52.526;13.390;2022-09-01T04:13:39;17.10;99.90
12254;DHT22;6189;52.526;13.390;2022-09-01T04:16:27;17.10;99.90
12254;DHT22;6189;52.526;13.390;2022-09-01T04:19:34;17.00;99.90
12254;DHT22;6189;52.526;13.390;2022-09-01T04:22:19;17.00;99.90
12254;DHT22;6189;52.526;13.390;2022-09-01T04:25:07;17.00;99.90
12254;DHT22;6189;52.526;13.390;2022-09-01T04:27:53;17.00;99.90
12254;DHT22;6189;52.526;13.390;2022-09-01T04:30:42;16.80;99.90
12254;DHT22;6189;52.526;13.390;2022-09-01T04:33:28;16.80;99.90
12254;DHT22;6189;52.526;13.390;2022-09-01T04:36:20;16.70;99.90
12254;DHT22;6189;52.526;13.390;2022-09-01T04:39:07;16.60;99.90
12254;DHT22;6189;52.526;13.390;2022-09-01T04:41:53;16.60;99.90
12254;DHT22;6189;52.526;13.390;2022-09-01T04:44:39;16.70;99.90
12254;DHT22;6189;52.526;13.390;2022-09-01T04:47:27;16.70;99.90
12254;DHT22;6189;52.526;13.390;2022-09-01T04:50:14;16.70;99.90
12254;DHT22;6189;52.526;13.390;2022-09-01T04:53:02;16.60;99.90
12254;DHT22;6189;52.526;13.390;2022-09-01T04:55:50;16.70;99.90
12254;DHT22;6189;52.526;13.390;2022-09-01T04:58:37;16.60;99.90
12254;DHT22;6189;52.526;13.390;2022-09-01T05:01:25;16.50;99.90
12254;DHT22;6189;52.526;13.390;2022-09-01T05:04:14;16.50;99.90
12254;DHT22;6189;52.526;13.390;2022-09-01T05:07:02;16.60;99.90
12254;DHT22;6189;52.526;13.390;2022-09-01T05:09:48;16.50;99.90
12254;DHT22;6189;52.526;13.390;2022-09-01T05:12:34;16.50;99.90
12254;DHT22;6189;52.526;13.390;2022-09-01T05:15:20;16.50;99.90
12254;DHT22;6189;52.526;13.390;2022-09-01T05:18:06;16.50;99.90
12254;DHT22;6189;52.526;13.390;2022-09-01T05:20:54;16.50;99.90
12254;DHT22;6189;52.526;13.390;2022-09-01T05:23:40;16.50;99.90
12254;DHT22;6189;52.526;13.390;2022-09-01T05:26:28;16.50;99.90
12254;DHT22;6189;52.526;13.390;2022-09-01T05:29:15;16.50;99.90
12254;DHT22;6189;52.526;13.390;2022-09-01T05:32:01;16.50;99.90
12254;DHT22;6189;52.526;13.390;2022-09-01T05:34:52;16.50;99.90
12254;DHT22;6189;52.526;13.390;2022-09-01T05:37:39;16.50;99.90
12254;DHT22;6189;52.526;13.390;2022-09-01T05:40:25;16.60;99.90
12254;DHT22;6189;52.526;13.390;2022-09-01T05:43:12;16.60;99.90
12254;DHT22;6189;52.526;13.390;2022-09-01T05:45:58;16.70;99.90
12254;DHT22;6189;52.526;13.390;2022-09-01T05:48:46;16.70;99.90
12254;DHT22;6189;52.526;13.390;2022-09-01T05:51:33;16.70;99.90
12254;DHT22;6189;52.526;13.390;2022-09-01T05:54:22;16.70;99.90
12254;DHT22;6189;52.526;13.390;2022-09-01T05:57:10;16.70;99.90
12254;DHT22;6189;52.526;13.390;2022-09-01T05:59:55;16.70;99.90
12254;DHT22;6189;52.526;13.390;2022-09-01T06:02:41;16.80;99.90
12254;DHT22;6189;52.526;13.390;2022-09-01T06:05:27;16.90;99.90
12254;DHT22;6189;52.526;13.390;2022-09-01T06:08:13;16.80;99.90
12254;DHT22;6189;52.526;13.390;2022-09-01T06:11:03;16.90;99.90
12254;DHT22;6189;52.526;13.390;2022-09-01T06:13:55;16.90;99.90
12254;DHT22;6189;52.526;13.390;2022-09-01T06:16:42;16.90;99.90
12254;DHT22;6189;52.526;13.390;2022-09-01T06:19:29;16.90;99.90
12254;DHT22;6189;52.526;13.390;2022-09-01T06:22:17;16.90;99.90
12254;DHT22;6189;52.526;13.390;2022-09-01T06:25:05;16.90;99.90
12254;DHT22;6189;52.526;13.390;2022-09-01T06:27:52;17.00;99.90
12254;DHT22;6189;52.526;13.390;2022-09-01T06:30:37;17.10;99.90
12254;DHT22;6189;52.526;13.390;2022-09-01T06:33:23;17.00;99.90
12254;DHT22;6189;52.526;13.390;2022-09-01T06:36:09;17.10;99.90
12254;DHT22;6189;52.526;13.390;2022-09-01T06:38:54;17.20;99.90
12254;DHT22;6189;52.526;13.390;2022-09-01T06:41:40;17.20;99.90
12254;DHT22;6189;52.526;13.390;2022-09-01T06:44:27;17.20;99.90
12254;DHT22;6189;52.526;13.390;2022-09-01T06:47:15;17.30;99.90
12254;DHT22;6189;52.526;13.390;2022-09-01T06:50:00;17.30;99.90
12254;DHT22;6189;52.526;13.390;2022-09-01T06:52:47;17.30;99.90
12254;DHT22;6189;52.526;13.390;2022-09-01T06:55:33;17.40;99.90
12254;DHT22;6189;52.526;13.390;2022-09-01T06:58:20;17.40;99.90
12254;DHT22;6189;52.526;13.390;2022-09-01T07:01:08;17.50;99.90
12254;DHT22;6189;52.526;13.390;2022-09-01T07:04:00;17.50;99.90
12254;DHT22;6189;52.526;13.390;2022-09-01T07:06:46;17.50;99.90
12254;DHT22;6189;52.526;13.390;2022-09-01T07:09:35;17.60;99.90
12254;DHT22;6189;52.526;13.390;2022-09-01T07:12:20;17.70;99.90
12254;DHT22;6189;52.526;13.390;2022-09-01T07:15:07;17.70;99.90
12254;DHT22;6189;52.526;13.390;2022-09-01T07:17:56;17.70;99.90
12254;DHT22;6189;52.526;13.390;2022-09-01T07:20:42;17.70;99.90
12254;DHT22;6189;52.526;13.390;2022-09-01T07:23:28;17.80;99.90
12254;DHT22;6189;52.526;13.390;2022-09-01T07:26:14;17.80;99.90
12254;DHT22;6189;52.526;13.390;2022-09-01T07:29:04;17.80;99.90
12254;DHT22;6189;52.526;13.390;2022-09-01T07:31:50;17.80;99.90
12254;DHT22;6189;52.526;13.390;2022-09-01T07:34:40;17.90;99.90
12254;DHT22;6189;52.526;13.390;2022-09-01T07:37:27;17.90;99.90
12254;DHT22;6189;52.526;13.390;2022-09-01T07:40:17;18.00;99.90
12254;DHT22;6189;52.526;13.390;2022-09-01T07:43:04;18.10;99.90
12254;DHT22;6189;52.526;13.390;2022-09-01T07:45:53;18.10;99.90
12254;DHT22;6189;52.526;13.390;2022-09-01T07:48:42;18.10;99.90
12254;DHT22;6189;52.526;13.390;2022-09-01T07:51:30;18.10;99.90
12254;DHT22;6189;52.526;13.390;2022-09-01T07:54:18;18.20;99.90
12254;DHT22;6189;52.526;13.390;2022-09-01T07:57:06;18.20;99.90
12254;DHT22;6189;52.526;13.390;2022-09-01T07:59:52;18.20;99.90
12254;DHT22;6189;52.526;13.390;2022-09-01T08:02:39;18.20;99.90
12254;DHT22;6189;52.526;13.390;2022-09-01T08:05:25;18.30;99.90
12254;DHT22;6189;52.526;13.390;2022-09-01T08:08:13;18.30;99.90
12254;DHT22;6189;52.526;13.390;2022-09-01T08:11:01;18.40;99.90
12254;DHT22;6189;52.526;13.390;2022-09-01T08:13:47;18.40;99.90
12254;DHT22;6189;52.526;13.390;2022-09-01T08:16:32;18.40;99.90
12254;DHT22;6189;52.526;13.390;2022-09-01T08:19:17;18.40;99.90
12254;DHT22;6189;52.526;13.390;2022-09-01T08:22:03;18.50;99.90
12254;DHT22;6189;52.526;13.390;2022-09-01T08:24:51;18.60;99.90
12254;DHT22;6189;52.526;13.390;2022-09-01T08:27:37;18.60;99.90
12254;DHT22;6189;52.526;13.390;2022-09-01T08:30:23;18.70;99.90
12254;DHT22;6189;52.526;13.390;2022-09-01T08:33:08;18.70;99.90
12254;DHT22;6189;52.526;13.390;2022-09-01T08:35:55;18.90;99.90
12254;DHT22;6189;52.526;13.390;2022-09-01T08:38:41;18.90;99.90
12254;DHT22;6189;52.526;13.390;2022-09-01T08:41:38;19.00;99.90
12254;DHT22;6189;52.526;13.390;2022-09-01T08:44:30;19.00;99.90
12254;DHT22;6189;52.526;13.390;2022-09-01T08:47:18;19.10;99.90
12254;DHT22;6189;52.526;13.390;2022-09-01T08:50:04;19.10;99.90
12254;DHT22;6189;52.526;13.390;2022-09-01T08:52:55;19.10;99.90
12254;DHT22;6189;52.526;13.390;2022-09-01T08:55:44;19.10;99.90
12254;DHT22;6189;52.526;13.390;2022-09-01T08:58:33;19.20;99.90
12254;DHT22;6189;52.526;13.390;2022-09-01T09:01:23;19.20;99.90
12254;DHT22;6189;52.526;13.390;2022-09-01T09:04:20;19.20;99.90
12254;DHT22;6189;52.526;13.390;2022-09-01T09:07:20;19.40;99.90
12254;DHT22;6189;52.526;13.390;2022-09-01T09:10:14;19.40;99.90
12254;DHT22;6189;52.526;13.390;2022-09-01T09:13:06;19.50;99.90
12254;DHT22;6189;52.526;13.390;2022-09-01T09:15:59;19.60;99.90
12254;DHT22;6189;52.526;13.390;2022-09-01T09:18:49;19.70;99.90
12254;DHT22;6189;52.526;13.390;2022-09-01T09:21:37;19.80;99.90
12254;DHT22;6189;52.526;13.390;2022-09-01T09:24:26;20.10;99.90
12254;DHT22;6189;52.526;13.390;2022-09-01T09:27:17;20.60;99.90
12254;DHT22;6189;52.526;13.390;2022-09-01T09:30:07;21.10;99.90
12254;DHT22;6189;52.526;13.390;2022-09-01T09:32:56;21.60;99.90
12254;DHT22;6189;52.526;13.390;2022-09-01T09:35:44;22.10;99.90
12254;DHT22;6189;52.526;13.390;2022-09-01T09:38:30;22.10;99.90
12254;DHT22;6189;52.526;13.390;2022-09-01T09:41:17;22.20;99.90
12254;DHT22;6189;52.526;13.390;2022-09-01T09:44:14;22.20;99.90
12254;DHT22;6189;52.526;13.390;2022-09-01T09:47:00;22.00;99.90
12254;DHT22;6189;52.526;13.390;2022-09-01T09:49:47;22.00;99.90
12254;DHT22;6189;52.526;13.390;2022-09-01T09:52:32;22.20;99.90
12254;DHT22;6189;52.526;13.390;2022-09-01T09:55:25;22.10;99.90
12254;DHT22;6189;52.526;13.390;2022-09-01T09:58:11;22.50;99.90
12254;DHT22;6189;52.526;13.390;2022-09-01T10:00:58;22.80;99.90
12254;DHT22;6189;52.526;13.390;2022-09-01T10:03:47;23.30;99.80
12254;DHT22;6189;52.526;13.390;2022-09-01T10:06:36;23.60;94.90
12254;DHT22;6189;52.526;13.390;2022-09-01T10:09:33;23.90;95.50
12254;DHT22;6189;52.526;13.390;2022-09-01T10:12:19;23.80;94.40
12254;DHT22;6189;52.526;13.390;2022-09-01T10:15:07;24.20;93.60
12254;DHT22;6189;52.526;13.390;2022-09-01T10:17:55;24.70;92.90
12254;DHT22;6189;52.526;13.390;2022-09-01T10:20:45;25.30;89.10
12254;DHT22;6189;52.526;13.390;2022-09-01T10:23:35;25.30;84.00
12254;DHT22;6189;52.526;13.390;2022-09-01T10:26:24;25.50;86.60
12254;DHT22;6189;52.526;13.390;2022-09-01T10:29:14;26.00;83.90
12254;DHT22;6189;52.526;13.390;2022-09-01T10:32:01;26.30;77.70
12254;DHT22;6189;52.526;13.390;2022-09-01T10:34:52;26.00;76.40
12254;DHT22;6189;52.526;13.390;2022-09-01T10:37:39;25.30;79.00
12254;DHT22;6189;52.526;13.390;2022-09-01T10:40:40;25.00;78.70
12254;DHT22;6189;52.526;13.390;2022-09-01T10:43:38;24.70;76.70
12254;DHT22;6189;52.526;13.390;2022-09-01T10:46:43;24.40;79.00
12254;DHT22;6189;52.526;13.390;2022-09-01T10:49:57;24.30;80.00
12254;DHT22;6189;52.526;13.390;2022-09-01T10:53:04;24.70;78.80
12254;DHT22;6189;52.526;13.390;2022-09-01T10:56:00;24.90;79.30
12254;DHT22;6189;52.526;13.390;2022-09-01T10:59:00;24.90;77.50
12254;DHT22;6189;52.526;13.390;2022-09-01T11:02:18;24.90;74.60
12254;DHT22;6189;52.526;13.390;2022-09-01T11:05:13;24.70;78.30
12254;DHT22;6189;52.526;13.390;2022-09-01T11:08:23;24.40;79.10
12254;DHT22;6189;52.526;13.390;2022-09-01T11:11:30;24.10;76.60
12254;DHT22;6189;52.526;13.390;2022-09-01T11:14:21;23.90;76.60
12254;DHT22;6189;52.526;13.390;2022-09-01T11:17:12;23.70;77.60
12254;DHT22;6189;52.526;13.390;2022-09-01T11:20:07;23.60;78.50
12254;DHT22;6189;52.526;13.390;2022-09-01T11:23:00;23.60;76.50
12254;DHT22;6189;52.526;13.390;2022-09-01T11:25:47;23.70;76.80
12254;DHT22;6189;52.526;13.390;2022-09-01T11:28:44;23.50;76.20
12254;DHT22;6189;52.526;13.390;2022-09-01T11:31:34;23.40;78.00
12254;DHT22;6189;52.526;13.390;2022-09-01T11:34:23;23.30;75.90
12254;DHT22;6189;52.526;13.390;2022-09-01T11:37:14;23.10;73.70
12254;DHT22;6189;52.526;13.390;2022-09-01T11:40:03;23.10;76.20
12254;DHT22;6189;52.526;13.390;2022-09-01T11:42:51;23.30;74.60
12254;DHT22;6189;52.526;13.390;2022-09-01T11:45:43;23.60;73.10
12254;DHT22;6189;52.526;13.390;2022-09-01T11:48:35;24.00;75.60
12254;DHT22;6189;52.526;13.390;2022-09-01T11:51:21;24.30;78.90
12254;DHT22;6189;52.526;13.390;2022-09-01T11:54:06;24.30;76.80
12254;DHT22;6189;52.526;13.390;2022-09-01T11:56:52;24.10;70.60
12254;DHT22;6189;52.526;13.390;2022-09-01T11:59:37;23.90;74.90
12254;DHT22;6189;52.526;13.390;2022-09-01T12:02:26;23.70;72.70
12254;DHT22;6189;52.526;13.390;2022-09-01T12:05:25;23.60;71.40
12254;DHT22;6189;52.526;13.390;2022-09-01T12:08:12;23.40;71.60
12254;DHT22;6189;52.526;13.390;2022-09-01T12:11:03;23.30;70.20
12254;DHT22;6189;52.526;13.390;2022-09-01T12:13:55;23.20;72.30
12254;DHT22;6189;52.526;13.390;2022-09-01T12:16:42;23.20;71.90
12254;DHT22;6189;52.526;13.390;2022-09-01T12:19:30;23.00;73.10
12254;DHT22;6189;52.526;13.390;2022-09-01T12:22:18;23.00;76.40
12254;DHT22;6189;52.526;13.390;2022-09-01T12:25:05;23.00;78.80
12254;DHT22;6189;52.526;13.390;2022-09-01T12:27:51;23.00;76.50
12254;DHT22;6189;52.526;13.390;2022-09-01T12:30:37;22.90;80.10
12254;DHT22;6189;52.526;13.390;2022-09-01T12:33:25;22.90;80.90
12254;DHT22;6189;52.526;13.390;2022-09-01T12:36:23;22.80;80.30
12254;DHT22;6189;52.526;13.390;2022-09-01T12:39:20;22.70;79.00
12254;DHT22;6189;52.526;13.390;2022-09-01T12:42:09;22.60;81.40
12254;DHT22;6189;52.526;13.390;2022-09-01T12:44:57;22.60;81.80
12254;DHT22;6189;52.526;13.390;2022-09-01T12:47:46;22.50;81.60
12254;DHT22;6189;52.526;13.390;2022-09-01T12:50:36;22.50;80.90
12254;DHT22;6189;52.526;13.390;2022-09-01T12:53:29;22.40;81.80
12254;DHT22;6189;52.526;13.390;2022-09-01T12:56:19;22.40;81.00
12254;DHT22;6189;52.526;13.390;2022-09-01T12:59:08;22.50;82.60
12254;DHT22;6189;52.526;13.390;2022-09-01T13:01:55;22.70;82.40
12254;DHT22;6189;52.526;13.390;2022-09-01T13:04:40;23.00;80.60
12254;DHT22;6189;52.526;13.390;2022-09-01T13:07:26;23.20;82.60
12254;DHT22;6189;52.526;13.390;2022-09-01T13:10:12;23.30;82.80
12254;DHT22;6189;52.526;13.390;2022-09-01T13:12:59;23.40;83.70
12254;DHT22;6189;52.526;13.390;2022-09-01T13:15:47;23.50;83.90
12254;DHT22;6189;52.526;13.390;2022-09-01T13:18:33;23.50;82.60
12254;DHT22;6189;52.526;13.390;2022-09-01T13:21:18;23.30;77.50
12254;DHT22;6189;52.526;13.390;2022-09-01T13:24:05;23.30;80.20
12254;DHT22;6189;52.526;13.390;2022-09-01T13:26:52;23.20;76.60
12254;DHT22;6189;52.526;13.390;2022-09-01T13:29:40;23.00;77.90
12254;DHT22;6189;52.526;13.390;2022-09-01T13:32:25;22.90;77.50
12254;DHT22;6189;52.526;13.390;2022-09-01T13:35:12;22.80;76.70
12254;DHT22;6189;52.526;13.390;2022-09-01T13:37:58;22.80;76.80
12254;DHT22;6189;52.526;13.390;2022-09-01T13:40:44;22.70;78.50
12254;DHT22;6189;52.526;13.390;2022-09-01T13:43:33;22.60;78.10
12254;DHT22;6189;52.526;13.390;2022-09-01T13:46:19;22.50;76.80
12254;DHT22;6189;52.526;13.390;2022-09-01T13:49:04;22.50;79.50
12254;DHT22;6189;52.526;13.390;2022-09-01T13:51:50;22.40;79.20
12254;DHT22;6189;52.526;13.390;2022-09-01T13:54:36;22.40;80.00
12254;DHT22;6189;52.526;13.390;2022-09-01T13:57:21;22.40;79.80
12254;DHT22;6189;52.526;13.390;2022-09-01T14:00:10;22.30;78.80
12254;DHT22;6189;52.526;13.390;2022-09-01T14:03:00;22.30;78.40
12254;DHT22;6189;52.526;13.390;2022-09-01T14:05:48;22.30;80.30
12254;DHT22;6189;52.526;13.390;2022-09-01T14:08:34;22.30;80.90
12254;DHT22;6189;52.526;13.390;2022-09-01T14:11:19;22.30;81.50
12254;DHT22;6189;52.526;13.390;2022-09-01T14:14:05;22.30;82.20
12254;DHT22;6189;52.526;13.390;2022-09-01T14:16:52;22.20;80.90
12254;DHT22;6189;52.526;13.390;2022-09-01T14:19:37;22.20;82.00
12254;DHT22;6189;52.526;13.390;2022-09-01T14:22:23;22.30;82.30
12254;DHT22;6189;52.526;13.390;2022-09-01T14:25:09;22.30;80.70
12254;DHT22;6189;52.526;13.390;2022-09-01T14:27:55;22.30;82.50
12254;DHT22;6189;52.526;13.390;2022-09-01T14:30:41;22.30;84.20
12254;DHT22;6189;52.526;13.390;2022-09-01T14:33:28;22.20;83.00
12254;DHT22;6189;52.526;13.390;2022-09-01T14:36:18;22.20;84.50
12254;DHT22;6189;52.526;13.390;2022-09-01T14:39:04;22.20;82.10
12254;DHT22;6189;52.526;13.390;2022-09-01T14:41:50;22.20;81.60
12254;DHT22;6189;52.526;13.390;2022-09-01T14:44:35;22.10;79.90
12254;DHT22;6189;52.526;13.390;2022-09-01T14:47:22;22.10;83.20
12254;DHT22;6189;52.526;13.390;2022-09-01T14:50:10;22.10;83.20
12254;DHT22;6189;52.526;13.390;2022-09-01T14:52:56;22.00;81.60
12254;DHT22;6189;52.526;13.390;2022-09-01T14:55:41;22.00;82.30
12254;DHT22;6189;52.526;13.390;2022-09-01T14:58:28;22.00;79.90
12254;DHT22;6189;52.526;13.390;2022-09-01T15:01:15;22.00;81.20
12254;DHT22;6189;52.526;13.390;2022-09-01T15:04:01;22.00;82.00
12254;DHT22;6189;52.526;13.390;2022-09-01T15:06:48;22.00;79.70
12254;DHT22;6189;52.526;13.390;2022-09-01T15:09:34;21.90;79.50
12254;DHT22;6189;52.526;13.390;2022-09-01T15:12:20;21.90;82.10
12254;DHT22;6189;52.526;13.390;2022-09-01T15:15:07;21.90;81.10
12254;DHT22;6189;52.526;13.390;2022-09-01T15:17:53;21.80;79.30
12254;DHT22;6189;52.526;13.390;2022-09-01T15:20:40;21.80;79.00
12254;DHT22;6189;52.526;13.390;2022-09-01T15:23:34;21.80;82.20
12254;DHT22;6189;52.526;13.390;2022-09-01T15:26:20;21.80;81.50
12254;DHT22;6189;52.526;13.390;2022-09-01T15:29:06;21.80;80.40
12254;DHT22;6189;52.526;13.390;2022-09-01T15:31:53;21.80;79.60
12254;DHT22;6189;52.526;13.390;2022-09-01T15:34:38;21.80;78.90
12254;DHT22;6189;52.526;13.390;2022-09-01T15:37:24;21.80;79.80
12254;DHT22;6189;52.526;13.390;2022-09-01T15:40:11;21.80;81.10
12254;DHT22;6189;52.526;13.390;2022-09-01T15:42:57;21.80;83.40
12254;DHT22;6189;52.526;13.390;2022-09-01T15:45:45;21.80;83.60
12254;DHT22;6189;52.526;13.390;2022-09-01T15:48:31;21.70;83.10
12254;DHT22;6189;52.526;13.390;2022-09-01T15:51:28;21.70;83.10
12254;DHT22;6189;52.526;13.390;2022-09-01T15:54:18;21.70;82.50
12254;DHT22;6189;52.526;13.390;2022-09-01T15:57:05;21.70;85.30
12254;DHT22;6189;52.526;13.390;2022-09-01T15:59:50;21.70;85.30
12254;DHT22;6189;52.526;13.390;2022-09-01T16:02:36;21.60;83.70
12254;DHT22;6189;52.526;13.390;2022-09-01T16:05:21;21.60;81.50
12254;DHT22;6189;52.526;13.390;2022-09-01T16:08:08;21.60;84.50
12254;DHT22;6189;52.526;13.390;2022-09-01T16:10:54;21.60;82.30
12254;DHT22;6189;52.526;13.390;2022-09-01T16:13:42;21.50;82.90
12254;DHT22;6189;52.526;13.390;2022-09-01T16:16:35;21.50;84.20
12254;DHT22;6189;52.526;13.390;2022-09-01T16:19:31;21.50;84.00
12254;DHT22;6189;52.526;13.390;2022-09-01T16:22:22;21.50;83.90
12254;DHT22;6189;52.526;13.390;2022-09-01T16:25:13;21.50;85.90
12254;DHT22;6189;52.526;13.390;2022-09-01T16:28:04;21.50;82.60
12254;DHT22;6189;52.526;13.390;2022-09-01T16:30:56;21.40;83.60
12254;DHT22;6189;52.526;13.390;2022-09-01T16:33:47;21.40;84.00
12254;DHT22;6189;52.526;13.390;2022-09-01T16:36:37;21.40;83.20
12254;DHT22;6189;52.526;13.390;2022-09-01T16:39:29;21.40;83.20
12254;DHT22;6189;52.526;13.390;2022-09-01T16:42:24;21.40;83.90
12254;DHT22;6189;52.526;13.390;2022-09-01T16:45:17;21.30;81.80
12254;DHT22;6189;52.526;13.390;2022-09-01T16:48:15;21.30;82.80
12254;DHT22;6189;52.526;13.390;2022-09-01T16:51:11;21.30;82.70
12254;DHT22;6189;52.526;13.390;2022-09-01T16:54:10;21.20;82.80
12254;DHT22;6189;52.526;13.390;2022-09-01T16:57:04;21.20;85.30
12254;DHT22;6189;52.526;13.390;2022-09-01T16:59:54;21.30;83.70
12254;DHT22;6189;52.526;13.390;2022-09-01T17:02:48;21.20;83.40
12254;DHT22;6189;52.526;13.390;2022-09-01T17:05:41;21.20;85.20
12254;DHT22;6189;52.526;13.390;2022-09-01T17:08:30;21.20;86.10
12254;DHT22;6189;52.526;13.390;2022-09-01T17:11:23;21.10;88.20
12254;DHT22;6189;52.526;13.390;2022-09-01T17:14:10;21.10;88.60
12254;DHT22;6189;52.526;13.390;2022-09-01T17:17:11;21.10;89.50
12254;DHT22;6189;52.526;13.390;2022-09-01T17:20:00;21.10;90.10
12254;DHT22;6189;52.526;13.390;2022-09-01T17:22:49;21.00;90.20
12254;DHT22;6189;52.526;13.390;2022-09-01T17:25:39;21.00;90.20
12254;DHT22;6189;52.526;13.390;2022-09-01T17:28:26;21.00;90.70
12254;DHT22;6189;52.526;13.390;2022-09-01T17:31:24;20.90;91.10
12254;DHT22;6189;52.526;13.390;2022-09-01T17:34:27;21.00;91.50
12254;DHT22;6189;52.526;13.390;2022-09-01T17:37:23;20.90;91.30
12254;DHT22;6189;52.526;13.390;2022-09-01T17:40:18;20.90;90.70
12254;DHT22;6189;52.526;13.390;2022-09-01T17:43:12;20.80;91.40
12254;DHT22;6189;52.526;13.390;2022-09-01T17:46:04;20.80;91.40